Time;durP1;ratioP1;P1;durP2;ratioP2;P2;SDS_P1;SDS_P2;PMS_P1;PMS_P2;Temp;Humidity;BMP_temperature;BMP_pressure;BME280_temperature;BME280_humidity;BME280_pressure;Samples;Min_cycle;Max_cycle;Signal;HPM_P1;HPM_P2
2021/05/24 00:00:12;;;;;;;4.07;1.00;;;14.80;99.90;;;;;;5035969;28;20203;-92
2021/05/24 00:02:39;;;;;;;3.00;0.70;;;14.80;99.90;;;;;;5069319;28;20196;-91
2021/05/24 00:05:13;;;;;;;2.47;0.85;;;14.80;99.90;;;;;;5055693;28;20259;-92
2021/05/24 00:07:39;;;;;;;4.28;0.80;;;14.80;99.90;;;;;;5055102;28;20223;-92
2021/05/24 00:10:06;;;;;;;1.77;0.77;;;14.80;99.90;;;;;;5056242;28;20262;-90
2021/05/24 00:12:32;;;;;;;2.08;0.65;;;14.80;99.90;;;;;;5064987;28;20200;-92
2021/05/24 00:14:59;;;;;;;4.43;0.70;;;14.80;99.90;;;;;;5075980;28;20160;-88
2021/05/24 00:17:25;;;;;;;1.77;0.65;;;14.90;99.90;;;;;;5077258;28;20175;-91
2021/05/24 00:19:51;;;;;;;1.45;0.70;;;14.90;99.90;;;;;;5055093;28;20176;-92
2021/05/24 00:22:16;;;;;;;1.00;0.55;;;14.90;99.90;;;;;;5056282;28;20183;-92
2021/05/24 00:24:42;;;;;;;0.80;0.52;;;14.90;99.90;;;;;;5068045;28;20172;-91
2021/05/24 00:27:08;;;;;;;4.38;0.70;;;14.90;99.90;;;;;;5069662;28;20171;-91
2021/05/24 00:29:34;;;;;;;2.38;0.70;;;14.90;99.90;;;;;;5072957;28;20167;-91
2021/05/24 00:32:00;;;;;;;1.08;0.52;;;14.90;99.90;;;;;;5077708;28;20180;-91
2021/05/24 00:34:26;;;;;;;6.72;1.00;;;14.90;99.90;;;;;;5061995;28;20174;-90
2021/05/24 00:36:54;;;;;;;1.67;0.60;;;14.80;99.90;;;;;;5074947;28;20175;-90
2021/05/24 00:39:20;;;;;;;1.55;0.70;;;14.80;99.90;;;;;;5038604;28;20164;-89
2021/05/24 00:41:46;;;;;;;2.72;0.70;;;14.80;99.90;;;;;;5051754;28;20175;-92
2021/05/24 00:44:12;;;;;;;2.65;0.95;;;14.80;99.90;;;;;;5038434;28;20608;-90
2021/05/24 00:46:39;;;;;;;2.15;0.70;;;14.80;99.90;;;;;;5038431;28;20504;-91
2021/05/24 00:49:05;;;;;;;1.80;0.70;;;14.90;99.90;;;;;;5034559;28;20188;-91
2021/05/24 00:51:32;;;;;;;3.15;0.85;;;14.80;99.90;;;;;;5044638;28;20233;-91
2021/05/24 00:53:58;;;;;;;1.33;1.00;;;14.80;99.90;;;;;;5054349;28;20167;-89
2021/05/24 00:56:24;;;;;;;2.72;0.82;;;14.80;99.90;;;;;;5054449;28;20194;-90
2021/05/24 00:58:50;;;;;;;2.13;0.70;;;14.90;99.90;;;;;;5053987;28;20194;-90
2021/05/24 01:01:16;;;;;;;2.88;0.60;;;14.80;99.90;;;;;;5054559;28;20210;-91
2021/05/24 01:03:42;;;;;;;5.47;0.63;;;14.80;99.90;;;;;;5054288;28;20168;-90
2021/05/24 01:06:08;;;;;;;8.82;0.80;;;14.80;99.90;;;;;;5054003;28;20308;-90
2021/05/24 01:08:33;;;;;;;0.95;0.50;;;14.90;99.90;;;;;;5054247;28;20526;-89
2021/05/24 01:10:59;;;;;;;5.43;0.90;;;14.80;99.90;;;;;;5053975;28;20222;-90
2021/05/24 01:13:25;;;;;;;3.25;0.98;;;14.90;99.90;;;;;;5037674;28;20743;-90
2021/05/24 01:15:51;;;;;;;2.13;0.70;;;14.90;99.90;;;;;;5053893;28;20167;-91
2021/05/24 01:18:19;;;;;;;2.05;0.73;;;14.80;99.90;;;;;;5054882;28;20167;-90
2021/05/24 01:20:46;;;;;;;2.70;0.70;;;14.80;99.90;;;;;;5053896;28;20183;-89
2021/05/24 01:23:14;;;;;;;1.65;0.60;;;14.80;99.90;;;;;;5055278;28;20207;-90
2021/05/24 01:25:49;;;;;;;3.33;0.65;;;14.80;99.90;;;;;;5055114;28;20213;-90
2021/05/24 01:28:17;;;;;;;2.15;0.70;;;14.80;99.90;;;;;;5053783;28;20175;-89
2021/05/24 01:30:45;;;;;;;2.05;0.70;;;14.80;99.90;;;;;;5054667;28;20660;-91
2021/05/24 01:33:11;;;;;;;5.60;0.93;;;14.70;99.90;;;;;;5054102;28;20188;-90
2021/05/24 01:35:39;;;;;;;2.15;0.68;;;14.70;99.90;;;;;;5053715;28;20167;-90
2021/05/24 01:38:06;;;;;;;2.83;0.70;;;14.70;99.90;;;;;;5053318;28;20172;-91
2021/05/24 01:40:33;;;;;;;2.80;0.75;;;14.70;99.90;;;;;;5054950;28;20209;-89
2021/05/24 01:42:59;;;;;;;1.48;0.68;;;14.70;99.90;;;;;;5054349;28;20310;-90
2021/05/24 01:45:26;;;;;;;2.65;0.60;;;14.70;99.90;;;;;;5052920;28;20646;-90
2021/05/24 01:47:53;;;;;;;5.57;1.02;;;14.70;99.90;;;;;;5054049;28;20250;-90
2021/05/24 01:50:20;;;;;;;4.32;0.60;;;14.70;99.90;;;;;;5053176;28;20179;-91
2021/05/24 01:52:46;;;;;;;1.20;0.68;;;14.70;99.90;;;;;;5053620;28;20176;-91
2021/05/24 01:55:13;;;;;;;2.92;0.68;;;14.70;99.90;;;;;;5054727;28;20172;-91
2021/05/24 01:57:39;;;;;;;4.13;0.57;;;14.70;99.90;;;;;;5053732;28;20273;-88
2021/05/24 02:00:17;;;;;;;1.85;0.90;;;14.70;99.90;;;;;;5053544;28;20199;-89
2021/05/24 02:02:44;;;;;;;4.43;0.90;;;14.70;99.90;;;;;;5053330;28;20171;-91
2021/05/24 02:05:11;;;;;;;1.73;0.70;;;14.60;99.90;;;;;;5052767;28;20505;-89
2021/05/24 02:07:38;;;;;;;1.10;0.70;;;14.60;99.90;;;;;;5053371;28;20164;-91
2021/05/24 02:10:06;;;;;;;3.13;0.77;;;14.60;99.90;;;;;;5054188;28;20163;-89
2021/05/24 02:12:32;;;;;;;2.17;0.70;;;14.60;99.90;;;;;;5054340;28;20198;-92
2021/05/24 02:14:58;;;;;;;4.57;0.80;;;14.50;99.90;;;;;;5052895;28;20236;-90
2021/05/24 02:17:23;;;;;;;1.85;0.55;;;14.50;99.90;;;;;;5053017;28;20167;-89
2021/05/24 02:19:49;;;;;;;1.63;0.70;;;14.50;99.90;;;;;;5053065;28;20175;-90
2021/05/24 02:22:16;;;;;;;3.17;0.90;;;14.50;99.90;;;;;;5053131;28;20178;-90
2021/05/24 02:24:42;;;;;;;3.72;0.52;;;14.50;99.90;;;;;;5052754;28;20203;-89
2021/05/24 02:27:08;;;;;;;3.00;0.85;;;14.50;99.90;;;;;;5052905;28;20171;-88
2021/05/24 02:29:34;;;;;;;1.23;0.70;;;14.40;99.90;;;;;;5053012;28;20182;-90
2021/05/24 02:31:59;;;;;;;2.08;0.75;;;14.30;99.90;;;;;;5036397;28;20207;-91
2021/05/24 02:34:25;;;;;;;5.80;1.02;;;14.30;99.90;;;;;;5036895;28;20179;-91
2021/05/24 02:36:51;;;;;;;2.75;1.00;;;14.40;99.90;;;;;;5052886;28;20175;-89
2021/05/24 02:39:16;;;;;;;4.28;0.80;;;14.30;99.90;;;;;;5034008;28;20169;-88
2021/05/24 02:41:42;;;;;;;2.33;0.85;;;14.30;99.90;;;;;;5041078;28;20172;-91
2021/05/24 02:44:08;;;;;;;2.15;0.60;;;14.30;99.90;;;;;;5087483;28;20187;-89
2021/05/24 02:46:35;;;;;;;2.40;0.88;;;14.20;99.90;;;;;;5074028;28;20175;-88
2021/05/24 02:49:00;;;;;;;3.25;1.05;;;14.30;99.90;;;;;;5052892;28;20167;-90
2021/05/24 02:51:26;;;;;;;5.65;0.85;;;14.20;99.90;;;;;;5052582;28;20210;-88
2021/05/24 02:53:52;;;;;;;6.22;1.33;;;14.30;99.90;;;;;;5052932;28;20198;-89
2021/05/24 02:56:17;;;;;;;4.63;0.80;;;14.30;99.90;;;;;;5037761;28;20175;-91
2021/05/24 02:58:43;;;;;;;4.05;1.00;;;14.20;99.90;;;;;;5061242;28;20254;-90
2021/05/24 03:01:09;;;;;;;6.32;0.80;;;14.10;99.90;;;;;;5054478;28;20147;-87
2021/05/24 03:03:35;;;;;;;3.20;0.93;;;14.10;99.90;;;;;;5075916;28;20171;-90
2021/05/24 03:06:04;;;;;;;2.63;0.98;;;14.10;99.90;;;;;;5057798;28;20179;-90
2021/05/24 03:08:31;;;;;;;1.48;0.63;;;14.00;99.90;;;;;;5057783;28;20171;-90
2021/05/24 03:10:57;;;;;;;2.97;0.60;;;14.00;99.90;;;;;;5057306;28;20199;-90
2021/05/24 03:13:25;;;;;;;4.97;0.95;;;13.90;99.90;;;;;;5056443;28;20207;-90
2021/05/24 03:15:53;;;;;;;4.28;0.73;;;14.00;99.90;;;;;;5039539;28;20198;-89
2021/05/24 03:18:19;;;;;;;1.95;0.73;;;14.00;99.90;;;;;;5056282;28;20168;-90
2021/05/24 03:20:45;;;;;;;5.57;0.80;;;14.10;99.90;;;;;;5057327;28;20187;-91
2021/05/24 03:23:10;;;;;;;2.78;0.80;;;14.10;99.90;;;;;;5057323;28;20623;-90
2021/05/24 03:25:36;;;;;;;5.05;1.02;;;14.00;99.90;;;;;;5057051;28;20595;-90
2021/05/24 03:28:02;;;;;;;3.53;1.00;;;13.90;99.90;;;;;;5056112;28;20174;-90
2021/05/24 03:30:28;;;;;;;4.63;1.13;;;13.90;99.90;;;;;;5055951;28;20258;-90
2021/05/24 03:32:55;;;;;;;4.18;0.90;;;13.70;99.90;;;;;;5055944;28;20636;-89
2021/05/24 03:35:21;;;;;;;9.15;0.98;;;13.70;99.90;;;;;;5056065;28;20266;-88
2021/05/24 03:37:47;;;;;;;1.23;0.80;;;13.50;99.90;;;;;;5055559;28;20207;-92
2021/05/24 03:40:14;;;;;;;7.90;1.13;;;13.40;99.90;;;;;;5055963;28;20216;-90
2021/05/24 03:42:40;;;;;;;3.83;0.80;;;13.10;99.90;;;;;;5055801;28;20175;-90
2021/05/24 03:45:10;;;;;;;1.30;0.60;;;12.70;99.90;;;;;;5039210;28;20640;-88
2021/05/24 03:47:36;;;;;;;0.55;0.50;;;12.50;99.90;;;;;;5070438;28;20638;-89
2021/05/24 03:50:03;;;;;;;5.57;0.60;;;12.30;99.90;;;;;;5059799;28;20210;-88
2021/05/24 03:52:28;;;;;;;1.08;0.57;;;12.10;99.90;;;;;;5075720;28;20203;-90
2021/05/24 03:54:54;;;;;;;1.40;0.75;;;12.00;99.90;;;;;;5069887;28;20646;-89
2021/05/24 03:57:20;;;;;;;1.98;0.80;;;11.90;99.90;;;;;;5035092;28;20517;-90
2021/05/24 03:59:45;;;;;;;6.75;1.17;;;11.80;99.90;;;;;;5035452;28;20175;-89
2021/05/24 04:02:11;;;;;;;0.80;0.80;;;11.70;99.90;;;;;;5068647;28;20176;-89
2021/05/24 04:04:38;;;;;;;3.13;1.45;;;11.60;99.90;;;;;;5035293;28;20176;-89
2021/05/24 04:07:05;;;;;;;2.92;1.60;;;11.60;99.90;;;;;;5047749;28;20196;-89
2021/05/24 04:09:31;;;;;;;5.28;1.35;;;11.60;99.90;;;;;;5055285;28;20191;-89
2021/05/24 04:11:57;;;;;;;2.35;1.60;;;11.60;99.90;;;;;;5055381;28;20187;-88
2021/05/24 04:14:23;;;;;;;2.47;1.70;;;11.70;99.90;;;;;;5055241;28;20214;-90
2021/05/24 04:16:49;;;;;;;7.70;2.97;;;11.70;99.90;;;;;;5056047;28;20174;-90
2021/05/24 04:19:14;;;;;;;6.07;2.58;;;11.70;99.90;;;;;;5054783;28;20178;-90
2021/05/24 04:21:42;;;;;;;4.03;2.88;;;11.70;99.90;;;;;;5055156;28;20641;-89
2021/05/24 04:24:09;;;;;;;3.55;2.78;;;11.70;99.90;;;;;;5054339;28;20174;-89
2021/05/24 04:26:34;;;;;;;2.78;2.30;;;11.70;99.90;;;;;;5054606;28;20218;-90
2021/05/24 04:29:00;;;;;;;3.20;2.10;;;11.60;99.90;;;;;;5056044;28;20168;-89
2021/05/24 04:31:26;;;;;;;4.47;2.15;;;11.50;99.90;;;;;;5038239;28;20575;-89
2021/05/24 04:33:51;;;;;;;4.43;1.95;;;11.50;99.90;;;;;;5054542;28;20225;-89
2021/05/24 04:36:17;;;;;;;2.00;1.50;;;11.50;99.90;;;;;;5055734;28;20176;-89
2021/05/24 04:38:43;;;;;;;2.67;1.33;;;11.50;99.90;;;;;;5037827;28;20651;-90
2021/05/24 04:41:09;;;;;;;1.48;1.38;;;11.50;99.90;;;;;;5054844;28;20262;-90
2021/05/24 04:43:36;;;;;;;8.27;1.00;;;11.50;99.90;;;;;;5054683;28;20171;-89
2021/05/24 04:46:02;;;;;;;5.28;0.90;;;11.50;99.90;;;;;;5037831;28;20179;-90
2021/05/24 04:48:28;;;;;;;0.77;0.75;;;11.60;99.90;;;;;;5054379;28;20201;-89
2021/05/24 04:50:53;;;;;;;1.05;0.75;;;11.60;99.90;;;;;;5055235;28;20203;-89
2021/05/24 04:53:19;;;;;;;1.70;0.85;;;11.50;99.90;;;;;;5054569;28;20167;-89
2021/05/24 04:55:45;;;;;;;1.92;0.80;;;11.50;99.90;;;;;;5054003;28;20179;-89
2021/05/24 04:58:11;;;;;;;1.65;0.70;;;11.50;99.90;;;;;;5054263;28;20190;-91
2021/05/24 05:00:38;;;;;;;1.85;0.65;;;11.60;99.90;;;;;;5053625;28;20220;-90
2021/05/24 05:03:04;;;;;;;1.15;0.68;;;11.50;99.90;;;;;;5054269;28;20264;-89
2021/05/24 05:05:29;;;;;;;1.88;0.65;;;11.50;99.90;;;;;;5055297;28;20209;-90
2021/05/24 05:07:55;;;;;;;0.82;0.60;;;11.60;99.90;;;;;;5033991;28;20175;-89
2021/05/24 05:10:21;;;;;;;1.85;0.60;;;11.60;99.90;;;;;;5064500;28;20175;-90
2021/05/24 05:12:46;;;;;;;1.98;0.73;;;11.60;99.90;;;;;;5072684;28;20211;-90
2021/05/24 05:15:12;;;;;;;1.15;0.60;;;11.60;99.90;;;;;;5074806;28;20181;-90
2021/05/24 05:17:38;;;;;;;0.80;0.73;;;11.60;99.90;;;;;;5056298;28;20175;-90
2021/05/24 05:20:05;;;;;;;2.35;0.88;;;11.50;99.90;;;;;;5053948;28;20191;-90
2021/05/24 05:22:30;;;;;;;1.40;0.50;;;11.50;99.90;;;;;;5054006;28;20258;-90
2021/05/24 05:24:56;;;;;;;0.80;0.63;;;11.40;99.90;;;;;;5053503;28;20690;-89
2021/05/24 05:27:22;;;;;;;2.95;1.02;;;11.40;99.90;;;;;;5041549;28;20268;-89
2021/05/24 05:29:47;;;;;;;2.67;0.52;;;11.30;99.90;;;;;;5068073;28;20646;-88
2021/05/24 05:32:13;;;;;;;0.65;0.55;;;11.30;99.90;;;;;;5072362;28;20191;-89
2021/05/24 05:34:39;;;;;;;1.88;0.70;;;11.30;99.90;;;;;;5055454;28;20225;-90
2021/05/24 05:37:05;;;;;;;1.05;0.60;;;11.30;99.90;;;;;;5053346;28;20267;-89
2021/05/24 05:39:31;;;;;;;3.22;1.00;;;11.30;99.90;;;;;;5036674;28;20179;-89
2021/05/24 05:41:57;;;;;;;1.63;0.43;;;11.30;99.90;;;;;;5052112;28;20524;-88
2021/05/24 05:44:23;;;;;;;2.40;0.73;;;11.30;99.90;;;;;;5053022;28;20164;-89
2021/05/24 05:46:48;;;;;;;2.80;0.98;;;11.40;99.90;;;;;;5053743;28;20175;-88
2021/05/24 05:49:14;;;;;;;5.15;0.70;;;11.40;99.90;;;;;;5036495;28;20175;-89
2021/05/24 05:51:40;;;;;;;0.90;0.70;;;11.60;99.90;;;;;;5036406;28;20203;-89
2021/05/24 05:54:05;;;;;;;2.10;0.90;;;11.60;99.90;;;;;;5053107;28;20176;-88
2021/05/24 05:56:31;;;;;;;1.00;0.90;;;11.70;99.90;;;;;;5053382;28;20249;-88
2021/05/24 05:58:57;;;;;;;1.95;0.73;;;11.70;99.90;;;;;;5053165;28;20670;-88
2021/05/24 06:01:22;;;;;;;3.13;1.08;;;11.80;99.90;;;;;;5052577;28;20175;-89
2021/05/24 06:03:48;;;;;;;2.90;0.70;;;11.70;99.90;;;;;;5052900;28;20179;-88
2021/05/24 06:06:14;;;;;;;2.28;0.82;;;11.60;99.90;;;;;;5053628;28;20173;-88
2021/05/24 06:08:40;;;;;;;2.10;0.70;;;11.70;99.90;;;;;;5032796;28;20172;-89
2021/05/24 06:11:06;;;;;;;1.23;0.60;;;11.60;99.90;;;;;;5071854;28;20292;-88
2021/05/24 06:13:33;;;;;;;1.50;0.77;;;11.60;99.90;;;;;;5053014;28;20193;-88
2021/05/24 06:15:59;;;;;;;7.22;1.17;;;11.50;99.90;;;;;;5054001;28;20266;-89
2021/05/24 06:18:24;;;;;;;3.58;1.02;;;11.40;99.90;;;;;;5052796;28;20263;-88
2021/05/24 06:20:50;;;;;;;3.55;0.98;;;11.40;99.90;;;;;;5033081;28;20176;-89
2021/05/24 06:23:17;;;;;;;1.27;0.90;;;11.40;99.90;;;;;;5052892;28;20225;-89
2021/05/24 06:25:44;;;;;;;1.17;0.77;;;11.30;99.90;;;;;;5052800;28;20163;-89
2021/05/24 06:28:10;;;;;;;1.75;0.70;;;11.40;99.90;;;;;;5054187;28;20203;-89
2021/05/24 06:30:36;;;;;;;3.33;1.00;;;11.40;99.90;;;;;;5053629;28;20208;-89
2021/05/24 06:33:03;;;;;;;0.60;0.60;;;11.40;99.90;;;;;;5057115;28;20573;-88
2021/05/24 06:35:29;;;;;;;2.70;0.70;;;11.40;99.90;;;;;;5058732;28;20170;-88
2021/05/24 06:37:54;;;;;;;2.50;1.10;;;11.30;99.90;;;;;;5057068;28;20175;-90
2021/05/24 06:40:20;;;;;;;1.83;0.80;;;11.30;99.90;;;;;;5057809;28;20175;-89
2021/05/24 06:42:46;;;;;;;3.10;1.13;;;11.30;99.90;;;;;;5057450;28;20266;-88
2021/05/24 06:45:16;;;;;;;1.52;0.77;;;11.40;99.90;;;;;;5056815;28;20554;-88
2021/05/24 06:47:42;;;;;;;3.45;1.20;;;11.40;99.90;;;;;;5056695;28;20175;-89
2021/05/24 06:50:08;;;;;;;1.25;0.88;;;11.40;99.90;;;;;;5056483;28;20666;-89
2021/05/24 06:52:34;;;;;;;3.20;1.10;;;11.50;99.90;;;;;;5056327;28;20278;-88
2021/05/24 06:55:01;;;;;;;1.50;0.80;;;11.50;99.90;;;;;;5056550;28;20179;-90
2021/05/24 06:57:26;;;;;;;2.53;1.13;;;11.50;99.90;;;;;;5056488;28;20262;-90
2021/05/24 06:59:52;;;;;;;1.15;0.93;;;11.60;99.90;;;;;;5056387;28;20250;-89
2021/05/24 07:02:18;;;;;;;4.68;1.05;;;11.60;99.90;;;;;;5056580;28;20194;-88
2021/05/24 07:04:44;;;;;;;1.88;0.93;;;11.60;99.90;;;;;;5056542;28;20245;-90
2021/05/24 07:07:10;;;;;;;3.65;1.08;;;11.60;99.90;;;;;;5057897;28;20232;-89
2021/05/24 07:09:36;;;;;;;3.42;1.00;;;11.60;99.90;;;;;;5058129;28;20179;-89
2021/05/24 07:12:02;;;;;;;1.23;0.90;;;11.60;99.90;;;;;;5059618;28;20265;-84
2021/05/24 07:14:28;;;;;;;4.10;1.05;;;11.50;99.90;;;;;;5058472;28;20624;-89
2021/05/24 07:16:54;;;;;;;2.05;1.20;;;11.60;99.90;;;;;;5057760;28;20167;-87
2021/05/24 07:19:20;;;;;;;3.30;1.02;;;11.60;99.90;;;;;;5057838;28;20172;-90
2021/05/24 07:21:46;;;;;;;3.42;1.23;;;11.50;99.90;;;;;;5036182;28;20183;-90
2021/05/24 07:24:11;;;;;;;1.80;1.00;;;11.50;99.90;;;;;;5036222;28;20175;-89
2021/05/24 07:26:37;;;;;;;3.13;1.33;;;11.40;99.90;;;;;;5037273;28;20629;-89
2021/05/24 07:29:03;;;;;;;5.32;1.40;;;11.40;99.90;;;;;;5038401;28;20172;-90
2021/05/24 07:31:29;;;;;;;2.67;1.30;;;11.40;99.90;;;;;;5055688;28;20656;-88
2021/05/24 07:33:55;;;;;;;2.80;1.48;;;11.40;99.90;;;;;;5056638;28;20217;-88
2021/05/24 07:36:20;;;;;;;4.65;1.20;;;11.40;99.90;;;;;;5056880;28;20168;-89
2021/05/24 07:38:46;;;;;;;2.47;1.20;;;11.50;99.90;;;;;;5063131;28;20207;-87
2021/05/24 07:41:12;;;;;;;2.05;1.17;;;11.50;99.90;;;;;;5072828;28;20183;-89
2021/05/24 07:43:38;;;;;;;2.17;1.30;;;11.60;99.90;;;;;;5078112;28;20155;-89
2021/05/24 07:46:05;;;;;;;2.35;1.33;;;11.80;99.90;;;;;;5043296;28;20178;-89
2021/05/24 07:48:31;;;;;;;3.03;1.58;;;11.90;99.90;;;;;;5055594;28;20180;-89
2021/05/24 07:50:56;;;;;;;2.00;1.25;;;12.00;99.90;;;;;;5035653;28;20206;-90
2021/05/24 07:53:22;;;;;;;2.63;1.00;;;12.00;99.90;;;;;;5039065;28;20593;-89
2021/05/24 07:55:48;;;;;;;4.95;1.70;;;12.00;99.90;;;;;;5041387;28;20199;-90
2021/05/24 07:58:13;;;;;;;5.10;1.20;;;12.10;99.90;;;;;;5069121;28;20184;-89
2021/05/24 08:00:39;;;;;;;0.80;0.80;;;12.10;99.90;;;;;;5077803;28;20186;-89
2021/05/24 08:03:05;;;;;;;2.58;1.20;;;12.20;99.90;;;;;;5060234;28;20168;-89
2021/05/24 08:05:30;;;;;;;3.70;1.23;;;12.20;99.90;;;;;;5054671;28;20183;-87
2021/05/24 08:07:56;;;;;;;2.83;1.00;;;12.10;99.90;;;;;;5034379;28;20179;-88
2021/05/24 08:10:22;;;;;;;2.78;1.10;;;12.10;99.90;;;;;;5086867;28;20183;-90
2021/05/24 08:12:49;;;;;;;2.92;1.20;;;12.00;99.90;;;;;;5038834;28;20202;-90
2021/05/24 08:15:29;;;;;;;4.45;1.02;;;12.10;99.90;;;;;;5049309;28;20540;-90
2021/05/24 08:17:55;;;;;;;1.48;0.98;;;12.10;99.90;;;;;;5052800;28;20570;-88
2021/05/24 08:20:20;;;;;;;1.30;0.93;;;12.10;99.90;;;;;;5060390;28;20275;-89
2021/05/24 08:22:46;;;;;;;1.77;1.23;;;12.10;99.90;;;;;;5026009;28;20176;-89
2021/05/24 08:25:12;;;;;;;1.98;1.20;;;12.00;99.90;;;;;;5035725;28;20310;-88
2021/05/24 08:27:38;;;;;;;1.40;0.93;;;12.10;99.90;;;;;;5034965;28;20533;-89
2021/05/24 08:30:09;;;;;;;1.20;1.10;;;12.10;99.90;;;;;;5037317;28;20183;-89
2021/05/24 08:32:35;;;;;;;1.77;0.90;;;12.10;99.90;;;;;;5054139;28;20195;-89
2021/05/24 08:35:01;;;;;;;5.15;1.20;;;12.30;99.90;;;;;;5055624;28;20178;-89
2021/05/24 08:37:27;;;;;;;1.20;1.10;;;12.30;99.90;;;;;;5054486;28;20621;-89
2021/05/24 08:39:53;;;;;;;1.27;1.10;;;12.40;99.90;;;;;;5054715;28;20213;-89
2021/05/24 08:42:18;;;;;;;1.33;0.93;;;12.40;99.90;;;;;;5056374;28;20186;-90
2021/05/24 08:44:45;;;;;;;1.17;1.00;;;12.60;99.90;;;;;;5056311;28;20171;-89
2021/05/24 08:47:12;;;;;;;1.45;1.35;;;12.60;99.90;;;;;;5039948;28;20171;-90
2021/05/24 08:49:38;;;;;;;3.58;1.00;;;12.80;99.90;;;;;;5046351;28;20230;-89
2021/05/24 08:52:04;;;;;;;3.92;1.02;;;12.80;99.90;;;;;;5043565;28;20200;-90
2021/05/24 08:54:31;;;;;;;5.38;1.20;;;12.90;99.90;;;;;;5036970;28;20682;-91
2021/05/24 08:56:56;;;;;;;1.75;0.90;;;12.80;99.90;;;;;;5040340;28;20172;-90
2021/05/24 08:59:22;;;;;;;1.02;0.90;;;12.90;99.90;;;;;;5018872;28;20552;-89
2021/05/24 09:01:48;;;;;;;1.67;1.00;;;13.10;99.90;;;;;;5036197;28;20188;-89
2021/05/24 09:04:13;;;;;;;2.00;1.13;;;13.30;99.90;;;;;;5045744;28;20163;-89
2021/05/24 09:06:42;;;;;;;2.90;1.02;;;13.70;99.90;;;;;;5044615;28;20222;-90
2021/05/24 09:09:16;;;;;;;2.58;0.80;;;14.30;99.90;;;;;;5034643;28;20172;-86
2021/05/24 09:11:44;;;;;;;1.33;0.90;;;15.10;99.90;;;;;;5037276;28;20227;-88
2021/05/24 09:14:12;;;;;;;2.15;0.75;;;15.20;99.90;;;;;;5057875;28;20201;-86
2021/05/24 09:16:38;;;;;;;1.48;0.80;;;15.10;99.90;;;;;;5058200;28;20179;-87
2021/05/24 09:19:13;;;;;;;1.20;0.80;;;15.00;99.90;;;;;;5056699;28;20647;-88
2021/05/24 09:21:47;;;;;;;0.90;0.68;;;14.80;99.90;;;;;;5057105;28;20274;-87
2021/05/24 09:24:31;;;;;;;1.27;0.80;;;14.50;99.90;;;;;;5041243;28;20508;-89
2021/05/24 09:27:03;;;;;;;0.75;0.60;;;14.10;99.90;;;;;;5067698;28;20164;-91
2021/05/24 09:29:43;;;;;;;2.47;1.00;;;14.10;99.90;;;;;;5072398;28;20176;-89
2021/05/24 09:32:26;;;;;;;1.02;0.85;;;14.00;99.90;;;;;;5054060;28;20612;-88
2021/05/24 09:34:54;;;;;;;2.00;0.90;;;14.00;99.90;;;;;;5054496;28;20179;-88
2021/05/24 09:37:30;;;;;;;0.90;0.90;;;14.00;99.90;;;;;;5054244;28;20646;-89
2021/05/24 09:39:56;;;;;;;1.05;0.75;;;13.90;99.90;;;;;;5053961;28;20171;-88
2021/05/24 09:42:22;;;;;;;0.93;0.88;;;14.10;99.90;;;;;;5054245;28;20190;-89
2021/05/24 09:44:51;;;;;;;1.05;0.73;;;14.10;99.90;;;;;;5053839;28;20184;-89
2021/05/24 09:47:38;;;;;;;0.95;0.75;;;14.10;99.90;;;;;;5053676;28;20167;-88
2021/05/24 09:50:15;;;;;;;0.80;0.80;;;14.40;99.90;;;;;;5054865;28;20183;-88
2021/05/24 09:52:42;;;;;;;1.63;0.80;;;14.90;99.90;;;;;;5053517;28;20190;-90
2021/05/24 09:55:15;;;;;;;1.15;0.73;;;15.00;99.90;;;;;;5053700;28;20621;-89
2021/05/24 09:58:01;;;;;;;1.55;1.00;;;15.20;99.90;;;;;;5053295;28;20187;-89
2021/05/24 10:00:39;;;;;;;2.20;1.10;;;15.20;99.90;;;;;;5054622;28;20612;-88
2021/05/24 10:03:10;;;;;;;0.68;0.68;;;15.20;99.90;;;;;;5053589;28;20205;-89
2021/05/24 10:05:48;;;;;;;1.48;0.80;;;14.90;99.90;;;;;;5052473;28;20172;-88
2021/05/24 10:08:14;;;;;;;1.15;0.80;;;14.60;99.90;;;;;;5062810;28;20168;-89
2021/05/24 10:10:41;;;;;;;1.77;0.85;;;14.60;99.90;;;;;;5079825;28;20167;-89
2021/05/24 10:13:08;;;;;;;1.77;1.00;;;15.00;99.90;;;;;;5072758;28;20586;-89
2021/05/24 10:15:43;;;;;;;1.00;0.90;;;15.20;99.90;;;;;;5057479;28;20191;-88
2021/05/24 10:18:09;;;;;;;1.35;1.17;;;15.70;99.90;;;;;;5047004;28;20182;-87
2021/05/24 10:20:35;;;;;;;1.95;1.10;;;15.80;99.90;;;;;;5085935;28;20535;-87
2021/05/24 10:23:01;;;;;;;1.70;0.98;;;15.60;99.90;;;;;;5054355;28;20709;-87
2021/05/24 10:25:28;;;;;;;1.67;1.02;;;15.20;99.90;;;;;;5058072;28;20167;-89
2021/05/24 10:27:54;;;;;;;1.33;1.10;;;14.60;99.90;;;;;;5063708;28;20187;-91
2021/05/24 10:30:21;;;;;;;1.80;1.20;;;14.50;99.90;;;;;;5081664;28;20689;-90
2021/05/24 10:33:01;;;;;;;1.30;1.20;;;14.40;99.90;;;;;;5046224;28;20218;-90
2021/05/24 10:35:42;;;;;;;5.28;1.30;;;14.50;99.90;;;;;;5071282;28;20192;-90
2021/05/24 10:38:33;;;;;;;3.85;1.15;;;14.40;99.90;;;;;;5043773;28;20176;-89
2021/05/24 10:41:16;;;;;;;1.13;1.02;;;14.40;99.90;;;;;;5055634;28;20186;-91
2021/05/24 10:43:47;;;;;;;4.53;1.48;;;14.50;99.90;;;;;;5053755;28;20176;-90
2021/05/24 10:46:31;;;;;;;2.80;1.13;;;14.60;99.90;;;;;;5059808;28;20543;-89
2021/05/24 10:49:04;;;;;;;2.08;1.33;;;14.80;99.90;;;;;;5049918;28;20305;-90
2021/05/24 10:51:45;;;;;;;1.25;0.85;;;14.90;99.90;;;;;;5043388;28;20561;-91
2021/05/24 10:54:12;;;;;;;1.10;0.90;;;15.10;99.90;;;;;;5053180;28;20197;-88
2021/05/24 10:56:43;;;;;;;3.05;1.20;;;15.30;99.90;;;;;;5052286;28;20624;-90
2021/05/24 10:59:44;;;;;;;3.25;0.98;;;15.70;99.90;;;;;;5052627;28;20221;-89
2021/05/24 11:02:11;;;;;;;0.60;0.60;;;16.40;99.90;;;;;;5048592;28;20177;-91
2021/05/24 11:04:48;;;;;;;1.15;0.70;;;17.20;99.90;;;;;;5052957;28;20171;-90
2021/05/24 11:07:41;;;;;;;1.85;0.90;;;17.10;99.90;;;;;;5049867;28;20179;-91
2021/05/24 11:10:19;;;;;;;2.75;1.00;;;16.70;99.90;;;;;;5052528;28;20160;-90
2021/05/24 11:12:46;;;;;;;6.00;1.10;;;17.20;99.90;;;;;;5050832;28;20207;-90
2021/05/24 11:15:23;;;;;;;2.45;1.15;;;17.80;99.90;;;;;;5052186;28;20201;-89
2021/05/24 11:18:02;;;;;;;1.33;1.00;;;17.60;99.90;;;;;;5055784;28;20159;-89
2021/05/24 11:20:37;;;;;;;2.03;1.33;;;17.80;99.90;;;;;;5057064;28;20229;-90
2021/05/24 11:23:58;;;;;;;2.78;1.13;;;18.70;99.90;;;;;;5054898;28;20178;-90
2021/05/24 11:26:33;;;;;;;2.70;1.30;;;20.20;99.90;;;;;;5056477;28;20553;-90
2021/05/24 11:29:16;;;;;;;2.10;1.25;;;21.90;99.90;;;;;;5055933;28;20177;-87
2021/05/24 11:31:47;;;;;;;1.13;0.75;;;23.10;99.90;;;;;;5056762;28;20524;-91
2021/05/24 11:34:34;;;;;;;2.03;1.25;;;23.70;99.90;;;;;;5055653;28;20194;-89
2021/05/24 11:37:07;;;;;;;1.33;0.80;;;24.30;99.90;;;;;;5053167;28;20171;-86
2021/05/24 11:39:36;;;;;;;3.72;0.73;;;24.30;99.90;;;;;;5078251;28;20176;-90
2021/05/24 11:42:08;;;;;;;2.30;1.00;;;23.90;99.90;;;;;;5051766;28;20199;-88
2021/05/24 11:44:48;;;;;;;1.20;0.70;;;22.10;99.90;;;;;;5055379;28;20225;-89
2021/05/24 11:47:27;;;;;;;2.47;1.67;;;20.50;99.90;;;;;;5055443;28;20174;-88
2021/05/24 11:49:56;;;;;;;3.10;0.80;;;19.00;99.90;;;;;;5053578;28;20175;-91
2021/05/24 11:52:24;;;;;;;1.10;0.90;;;17.80;99.90;;;;;;5036246;28;20238;-91
2021/05/24 11:54:52;;;;;;;4.93;1.50;;;18.40;99.90;;;;;;5053154;28;20183;-91
2021/05/24 11:57:20;;;;;;;2.55;1.40;;;21.00;99.90;;;;;;5056125;28;20172;-89
2021/05/24 11:59:47;;;;;;;1.67;1.20;;;22.40;99.90;;;;;;5057509;28;20179;-88
2021/05/24 12:02:14;;;;;;;4.55;1.85;;;21.90;99.90;;;;;;5072057;28;20183;-90
2021/05/24 12:04:47;;;;;;;1.50;1.20;;;21.70;99.90;;;;;;5054258;28;20174;-91
2021/05/24 12:07:14;;;;;;;1.50;1.20;;;22.60;99.90;;;;;;5054610;28;20179;-89
2021/05/24 12:09:40;;;;;;;3.08;1.13;;;23.40;99.90;;;;;;5056704;28;20164;-90
2021/05/24 12:12:17;;;;;;;1.67;1.13;;;24.00;99.90;;;;;;5054212;28;20203;-89
2021/05/24 12:14:48;;;;;;;2.85;1.20;;;24.60;99.90;;;;;;5055469;28;20569;-91
2021/05/24 12:17:23;;;;;;;1.88;1.55;;;24.70;99.90;;;;;;5055309;28;20183;-89
2021/05/24 12:19:54;;;;;;;2.13;1.63;;;23.00;99.90;;;;;;5056124;28;20175;-91
2021/05/24 12:22:22;;;;;;;2.42;1.85;;;21.50;99.90;;;;;;5055328;28;20632;-88
2021/05/24 12:24:48;;;;;;;2.88;2.50;;;20.60;99.90;;;;;;5052487;28;20233;-90
2021/05/24 12:27:17;;;;;;;2.67;2.35;;;20.20;99.90;;;;;;5056137;28;20203;-89
2021/05/24 12:30:05;;;;;;;5.63;2.97;;;19.50;99.90;;;;;;5054182;28;20273;-89
2021/05/24 12:32:34;;;;;;;4.15;3.10;;;18.60;99.90;;;;;;5037492;28;20668;-89
2021/05/24 12:35:04;;;;;;;2.97;2.63;;;18.00;99.90;;;;;;5056421;28;20202;-90
2021/05/24 12:37:29;;;;;;;3.35;2.58;;;17.40;99.90;;;;;;5062832;28;20167;-89
2021/05/24 12:39:56;;;;;;;2.67;2.47;;;17.10;99.90;;;;;;5073038;28;20159;-91
2021/05/24 12:42:22;;;;;;;3.47;2.58;;;16.80;99.90;;;;;;5078597;28;20186;-91
2021/05/24 12:44:48;;;;;;;5.57;2.85;;;16.60;99.90;;;;;;5056483;28;20229;-91
2021/05/24 12:47:19;;;;;;;3.40;2.78;;;16.60;99.90;;;;;;5072715;28;20182;-91
2021/05/24 12:49:47;;;;;;;3.90;3.22;;;17.00;99.90;;;;;;5066598;28;20189;-93
2021/05/24 12:52:14;;;;;;;4.13;3.15;;;17.40;99.90;;;;;;5056196;28;20207;-90